Time;durP1;ratioP1;P1;durP2;ratioP2;P2;SDS_P1;SDS_P2;PMS_P1;PMS_P2;Temp;Humidity;BMP_temperature;BMP_pressure;BME280_temperature;BME280_humidity;BME280_pressure;Samples;Min_cycle;Max_cycle;Signal;HPM_P1;HPM_P2
2023/10/02 00:01:10;;;;;;;;;21.00;14.00;;;;;20.91;61.02;101463.69;5115527;27;45266;-74
2023/10/02 00:03:40;;;;;;;;;20.00;18.00;;;;;20.90;61.11;101473.47;5095647;27;45556;-75
2023/10/02 00:06:06;;;;;;;;;15.25;12.25;;;;;20.88;61.24;101466.53;5118049;27;45280;-75
2023/10/02 00:08:32;;;;;;;;;12.50;12.00;;;;;20.84;61.57;101466.72;5118761;27;45417;-74
2023/10/02 00:11:36;;;;;;;;;15.00;9.75;;;;;20.83;61.79;101474.78;5119203;27;45317;-74
2023/10/02 00:14:18;;;;;;;;;16.50;11.75;;;;;20.81;61.51;101476.69;5116684;27;45449;-74
2023/10/02 00:17:03;;;;;;;;;17.50;14.00;;;;;20.79;61.34;101482.09;5119485;27;45991;-74
2023/10/02 00:19:49;;;;;;;;;19.50;11.00;;;;;20.78;61.41;101483.03;5113509;27;47599;-74
2023/10/02 00:25:00;;;;;;;;;23.00;16.75;;;;;20.71;61.50;101476.34;5116002;27;45557;-75
2023/10/02 00:27:28;;;;;;;;;16.50;12.75;;;;;20.72;61.98;101479.88;5099569;27;45254;-75
2023/10/02 00:29:58;;;;;;;;;18.00;12.25;;;;;20.69;61.54;101475.56;5115108;27;47639;-75
2023/10/02 00:32:26;;;;;;;;;17.00;13.00;;;;;20.65;61.80;101476.72;5116931;27;45703;-75
2023/10/02 00:34:52;;;;;;;;;15.50;13.25;;;;;20.64;62.19;101477.66;5124039;27;45462;-75
2023/10/02 00:37:18;;;;;;;;;16.75;12.00;;;;;20.63;61.45;101475.94;5113208;27;45348;-75
2023/10/02 00:39:47;;;;;;;;;17.00;12.50;;;;;20.57;61.85;101468.28;5112387;27;46544;-74
2023/10/02 00:42:16;;;;;;;;;16.25;11.25;;;;;20.59;61.79;101475.25;5106889;27;45770;-75
2023/10/02 00:44:52;;;;;;;;;20.75;15.50;;;;;20.59;62.29;101477.91;5116300;27;45530;-74
2023/10/02 00:47:47;;;;;;;;;14.75;9.25;;;;;20.55;62.08;101472.84;5110919;27;45442;-74
2023/10/02 00:50:17;;;;;;;;;19.25;11.25;;;;;20.54;61.98;101469.31;5134219;27;46872;-74
2023/10/02 00:52:47;;;;;;;;;16.00;11.75;;;;;20.49;61.89;101468.72;5113853;27;45409;-74
2023/10/02 00:55:17;;;;;;;;;11.75;8.50;;;;;20.51;62.17;101465.97;5098652;27;45355;-74
2023/10/02 00:57:45;;;;;;;;;21.25;12.00;;;;;20.48;62.49;101472.31;5101368;27;45622;-75
2023/10/02 01:00:30;;;;;;;;;16.50;12.75;;;;;20.46;62.20;101469.75;5112176;27;46377;-74
2023/10/02 01:02:57;;;;;;;;;21.00;12.75;;;;;20.45;62.45;101467.16;5115018;27;45729;-74
2023/10/02 01:05:30;;;;;;;;;18.00;13.75;;;;;20.42;62.17;101465.56;5096138;27;45413;-75
2023/10/02 01:07:59;;;;;;;;;17.50;10.75;;;;;20.39;62.72;101470.19;5113265;27;45355;-75
2023/10/02 01:10:29;;;;;;;;;18.75;12.00;;;;;20.36;62.71;101459.72;5110838;27;48015;-75
2023/10/02 01:13:01;;;;;;;;;18.25;13.00;;;;;20.36;62.49;101471.22;5113945;27;45266;-75
2023/10/02 01:15:28;;;;;;;;;18.50;13.00;;;;;20.35;62.98;101466.00;5113596;27;45533;-75
2023/10/02 01:17:54;;;;;;;;;16.00;13.50;;;;;20.34;62.89;101465.13;5108443;27;45570;-74
2023/10/02 01:20:35;;;;;;;;;12.75;11.00;;;;;20.32;62.82;101468.81;5115319;27;46134;-74
2023/10/02 01:23:17;;;;;;;;;19.00;11.75;;;;;20.30;63.06;101464.44;5117790;27;46069;-74
2023/10/02 01:25:47;;;;;;;;;19.50;10.00;;;;;20.28;63.22;101462.81;5116041;27;45397;-75
2023/10/02 01:28:15;;;;;;;;;22.00;11.75;;;;;20.28;62.92;101460.16;5112370;27;45569;-74
2023/10/02 01:30:41;;;;;;;;;14.25;12.50;;;;;20.25;63.41;101462.97;5091377;27;47579;-74
2023/10/02 01:33:14;;;;;;;;;14.25;12.00;;;;;20.24;62.97;101458.63;5117617;27;45391;-75
2023/10/02 01:35:49;;;;;;;;;17.75;11.50;;;;;20.23;62.97;101459.56;5120870;27;45276;-73
2023/10/02 01:38:31;;;;;;;;;16.25;12.50;;;;;20.20;63.32;101455.28;5114470;27;45412;-74
2023/10/02 01:41:08;;;;;;;;;25.00;12.50;;;;;20.17;63.42;101450.13;5127390;27;46109;-75
2023/10/02 01:43:43;;;;;;;;;20.50;11.75;;;;;20.19;63.10;101450.06;5114556;27;45879;-74
2023/10/02 01:46:09;;;;;;;;;17.50;10.75;;;;;20.16;63.14;101453.72;5117751;27;45407;-74
2023/10/02 01:48:44;;;;;;;;;16.25;13.50;;;;;20.16;63.18;101452.88;5090511;27;45558;-73
2023/10/02 01:51:27;;;;;;;;;17.75;13.00;;;;;20.15;63.41;101452.03;5112313;27;46197;-73
2023/10/02 01:54:03;;;;;;;;;15.25;10.50;;;;;20.14;63.06;101454.75;5114094;27;45528;-75
2023/10/02 01:56:30;;;;;;;;;16.00;10.50;;;;;20.10;63.57;101451.41;5115856;27;45396;-73
2023/10/02 01:59:09;;;;;;;;;22.50;13.25;;;;;20.08;63.17;101445.34;5117004;27;45434;-75
2023/10/02 02:01:46;;;;;;;;;22.25;13.50;;;;;20.06;63.59;101441.88;5117047;27;46507;-75
2023/10/02 02:04:15;;;;;;;;;19.00;13.75;;;;;20.05;63.78;101438.38;5119946;27;45768;-73
2023/10/02 02:06:51;;;;;;;;;16.50;13.25;;;;;20.03;64.00;101442.06;5099565;27;45366;-75
2023/10/02 02:09:23;;;;;;;;;41.50;27.25;;;;;20.02;63.82;101437.69;5121663;27;45237;-74
2023/10/02 02:12:14;;;;;;;;;14.75;13.00;;;;;20.00;63.51;101429.81;5112379;27;46130;-73
2023/10/02 02:14:50;;;;;;;;;10.75;10.25;;;;;19.99;63.72;101435.19;5109224;27;45383;-75
2023/10/02 02:17:34;;;;;;;;;16.25;11.50;;;;;19.95;64.00;101429.19;5114169;27;45365;-74
2023/10/02 02:20:10;;;;;;;;;19.50;12.75;;;;;19.97;63.82;101427.31;5113472;27;45459;-73
2023/10/02 02:22:37;;;;;;;;;19.00;15.50;;;;;19.90;64.10;101417.97;5119168;27;45291;-73
2023/10/02 02:25:04;;;;;;;;;19.50;12.50;;;;;19.95;63.85;101425.69;5119837;27;45468;-74
2023/10/02 02:27:29;;;;;;;;;16.50;14.00;;;;;19.92;63.86;101414.31;5108089;27;45351;-74
2023/10/02 02:29:56;;;;;;;;;13.75;10.50;;;;;19.91;63.89;101417.03;5110310;27;45500;-74
2023/10/02 02:32:36;;;;;;;;;20.50;16.25;;;;;19.91;64.03;101425.84;5116266;27;45370;-75
2023/10/02 02:35:05;;;;;;;;;19.25;14.25;;;;;19.90;63.61;101421.50;5112582;27;46065;-73
2023/10/02 02:37:32;;;;;;;;;20.25;12.75;;;;;19.90;63.82;101425.94;5111744;27;45444;-73
2023/10/02 02:40:21;;;;;;;;;15.75;14.00;;;;;19.89;63.83;101424.25;5110147;27;45510;-73
2023/10/02 02:42:45;;;;;;;;;16.00;11.25;;;;;19.85;64.32;101415.59;5111851;27;46939;-73
2023/10/02 02:45:24;;;;;;;;;18.25;13.00;;;;;19.84;64.23;101415.66;5102113;27;45458;-74
2023/10/02 02:47:54;;;;;;;;;13.50;11.50;;;;;19.82;63.98;101431.69;5113264;27;45429;-74
2023/10/02 02:50:27;;;;;;;;;18.75;14.25;;;;;19.81;64.37;101427.28;5112441;27;45531;-74
2023/10/02 02:53:16;;;;;;;;;12.00;11.25;;;;;19.79;63.98;101423.88;5112158;27;45564;-75
2023/10/02 02:55:38;;;;;;;;;20.50;12.50;;;;;19.76;64.74;101423.19;5114905;27;45504;-74
2023/10/02 02:58:06;;;;;;;;;18.25;13.00;;;;;19.76;64.47;101423.19;5116006;27;68167;-73
2023/10/02 03:00:35;;;;;;;;;17.00;13.75;;;;;19.76;64.59;101423.19;5113790;27;47159;-73
2023/10/02 03:03:01;;;;;;;;;19.75;15.00;;;;;19.73;64.68;101421.53;5114840;27;48012;-73
2023/10/02 03:05:40;;;;;;;;;17.00;13.00;;;;;19.71;64.58;101418.09;5113056;27;45392;-74
2023/10/02 03:08:06;;;;;;;;;18.50;13.25;;;;;19.69;64.17;101410.22;5114279;27;45287;-73
2023/10/02 03:10:39;;;;;;;;;17.50;12.00;;;;;19.68;64.66;101412.97;5112432;27;45745;-73
2023/10/02 03:13:08;;;;;;;;;20.75;12.25;;;;;19.66;64.62;101404.22;5099192;27;47600;-74
2023/10/02 03:15:46;;;;;;;;;21.75;13.50;;;;;19.59;64.64;101398.38;5120703;27;45986;-73
2023/10/02 03:21:22;;;;;;;;;16.00;13.00;;;;;19.59;64.83;101406.34;5092170;27;46581;-74
2023/10/02 03:23:48;;;;;;;;;14.50;13.75;;;;;19.58;64.36;101409.06;5105840;27;45338;-74
2023/10/02 03:26:27;;;;;;;;;20.75;15.50;;;;;19.57;65.01;101410.88;5116621;27;46087;-74
2023/10/02 03:29:00;;;;;;;;;14.50;12.00;;;;;19.53;65.08;101404.88;5111474;27;46940;-74
2023/10/02 03:31:34;;;;;;;;;19.00;13.75;;;;;19.53;64.74;101401.38;5105383;27;45244;-74
2023/10/02 03:36:48;;;;;;;;;16.25;15.00;;;;;19.49;65.10;101405.97;5113286;27;45794;-75
2023/10/02 03:39:23;;;;;;;;;18.25;13.50;;;;;19.48;65.19;101395.47;5117370;27;45471;-75
2023/10/02 03:41:49;;;;;;;;;21.50;12.50;;;;;19.46;65.28;101398.19;5108480;27;45467;-75
2023/10/02 03:44:15;;;;;;;;;13.00;11.25;;;;;19.46;65.48;101402.63;5095914;27;47358;-75
2023/10/02 03:46:42;;;;;;;;;15.00;11.25;;;;;19.45;65.29;101395.63;5115730;27;46093;-73
2023/10/02 03:49:08;;;;;;;;;13.75;11.25;;;;;19.45;65.43;101395.63;5120126;27;45258;-74
2023/10/02 03:51:40;;;;;;;;;14.25;10.75;;;;;19.39;65.41;101390.63;5113946;27;45658;-73
2023/10/02 03:54:20;;;;;;;;;17.50;11.50;;;;;19.41;64.99;101396.72;5137651;27;45537;-74
2023/10/02 03:56:49;;;;;;;;;19.50;11.50;;;;;19.38;65.46;101392.44;5117857;27;45411;-73
2023/10/02 03:59:25;;;;;;;;;17.00;11.25;;;;;19.38;65.21;101386.28;5117411;27;45452;-73
2023/10/02 04:01:51;;;;;;;;;18.25;12.50;;;;;19.38;65.38;101387.13;5120906;27;45496;-73
2023/10/02 04:06:44;;;;;;;;;14.75;13.50;;;;;19.32;65.47;101380.34;5115794;27;45477;-73
2023/10/02 04:09:12;;;;;;;;;28.25;14.00;;;;;19.33;65.19;101387.34;5102289;27;45467;-73
2023/10/02 04:11:39;;;;;;;;;13.00;12.00;;;;;19.30;65.65;101382.22;5117549;27;45471;-73
2023/10/02 04:14:17;;;;;;;;;20.50;14.50;;;;;19.29;65.34;101380.50;5121147;27;45411;-73
2023/10/02 04:16:46;;;;;;;;;14.50;11.25;;;;;19.29;65.49;101385.81;5118595;27;45526;-73
2023/10/02 04:19:15;;;;;;;;;21.25;13.25;;;;;19.28;65.76;101383.25;5117387;27;45376;-73
2023/10/02 04:21:42;;;;;;;;;16.25;12.00;;;;;19.26;65.74;101379.81;5114487;27;45431;-72
2023/10/02 04:24:09;;;;;;;;;18.00;14.00;;;;;19.27;65.76;101384.19;5116531;27;45450;-73
2023/10/02 04:26:36;;;;;;;;;20.00;13.75;;;;;19.25;65.75;101386.94;5119634;27;45696;-73
2023/10/02 04:32:04;;;;;;;;;17.25;14.50;;;;;19.21;65.78;101374.78;5117086;27;45680;-74
2023/10/02 04:34:31;;;;;;;;;17.25;11.25;;;;;19.20;65.83;101373.03;5117543;27;45590;-74
2023/10/02 04:36:57;;;;;;;;;17.25;13.00;;;;;19.21;65.66;101379.19;5101933;27;45787;-73
2023/10/02 04:42:11;;;;;;;;;21.50;13.00;;;;;19.14;66.10;101371.56;5116069;27;45361;-73
2023/10/02 04:44:44;;;;;;;;;15.25;10.75;;;;;19.15;65.94;101375.06;5119230;27;46598;-73
2023/10/02 04:47:17;;;;;;;;;16.75;13.00;;;;;19.14;65.79;101373.34;5116127;27;45855;-73
2023/10/02 04:50:34;;;;;;;;;15.75;13.25;;;;;19.12;65.71;101372.56;5119721;27;45547;-73
2023/10/02 04:52:53;;;;;;;;;15.75;11.50;;;;;19.08;65.58;101377.19;5121618;27;45457;-73
2023/10/02 04:55:24;;;;;;;;;16.50;9.75;;;;;19.08;65.96;101373.69;5114693;27;45509;-72
2023/10/02 04:58:08;;;;;;;;;12.75;11.50;;;;;19.06;65.90;101375.56;5109969;27;46019;-73
2023/10/02 05:00:35;;;;;;;;;13.25;9.25;;;;;19.03;65.81;101373.91;5113673;27;45446;-73
2023/10/02 05:03:25;;;;;;;;;25.25;14.25;;;;;18.99;65.80;101367.06;5119174;27;45582;-73
2023/10/02 05:05:53;;;;;;;;;18.75;12.50;;;;;18.97;66.27;101366.28;5114864;27;45705;-74
2023/10/02 05:08:21;;;;;;;;;22.75;13.75;;;;;18.94;66.31;101366.44;5119127;27;45555;-74
2023/10/02 05:10:56;;;;;;;;;18.50;14.00;;;;;18.90;66.34;101368.41;5113001;27;45719;-74
2023/10/02 05:16:12;;;;;;;;;20.50;12.75;;;;;18.83;66.25;101363.50;5118884;27;45352;-74
2023/10/02 05:18:47;;;;;;;;;21.50;15.50;;;;;18.83;66.51;101363.50;5118253;27;45876;-74
2023/10/02 05:21:16;;;;;;;;;19.75;13.50;;;;;18.82;66.35;101364.44;5099416;27;45425;-73
2023/10/02 05:23:43;;;;;;;;;19.00;13.25;;;;;18.79;66.61;101366.28;5117194;27;45449;-74
2023/10/02 05:26:29;;;;;;;;;18.50;14.25;;;;;18.76;66.58;101368.22;5114665;27;46201;-72
2023/10/02 05:28:55;;;;;;;;;23.00;13.25;;;;;18.72;66.75;101366.69;5114663;27;45356;-75
2023/10/02 05:31:21;;;;;;;;;15.50;14.25;;;;;18.71;66.41;101362.28;5111521;27;45413;-75
2023/10/02 05:33:48;;;;;;;;;18.75;15.75;;;;;18.68;66.49;101363.31;5113343;27;45409;-72
2023/10/02 05:36:19;;;;;;;;;22.25;13.75;;;;;18.66;66.78;101365.19;5109523;27;46090;-80
2023/10/02 05:39:27;;;;;;;;;17.00;15.00;;;;;18.65;66.73;101363.47;5119588;27;45823;-74
2023/10/02 05:41:41;;;;;;;;;31.75;24.50;;;;;18.65;66.64;101365.28;5115928;27;45298;-80
2023/10/02 05:44:13;;;;;;;;;22.50;17.25;;;;;18.61;66.69;101367.22;5110071;27;45337;-80
2023/10/02 05:46:55;;;;;;;;;21.00;16.00;;;;;18.60;66.71;101370.78;5121368;27;46522;-79
2023/10/02 05:49:23;;;;;;;;;20.25;16.00;;;;;18.58;66.54;101370.88;5106784;27;46115;-76
2023/10/02 05:51:49;;;;;;;;;20.00;14.00;;;;;18.58;66.50;101370.88;5104808;27;45508;-79
2023/10/02 05:54:16;;;;;;;;;21.50;13.00;;;;;18.57;66.44;101363.00;5118797;27;45314;-78
2023/10/02 05:56:41;;;;;;;;;21.75;15.25;;;;;18.58;66.58;101368.22;5120424;27;45506;-81
2023/10/02 05:59:06;;;;;;;;;22.50;15.75;;;;;18.59;67.06;101369.94;5115205;27;68725;-82
2023/10/02 06:01:34;;;;;;;;;26.50;14.00;;;;;18.57;66.72;101361.22;5106223;27;69335;-82
2023/10/02 06:04:04;;;;;;;;;19.75;14.25;;;;;18.58;66.66;101365.56;5112522;27;45356;-78
2023/10/02 06:06:36;;;;;;;;;19.75;14.50;;;;;18.57;66.87;101357.69;5113233;27;45290;-78
2023/10/02 06:09:03;;;;;;;;;25.75;15.00;;;;;18.59;66.34;101361.13;5119205;27;45535;-75
2023/10/02 06:11:33;;;;;;;;;21.50;16.00;;;;;18.57;66.58;101355.91;5119861;27;45490;-72
2023/10/02 06:14:10;;;;;;;;;26.00;17.00;;;;;18.57;66.54;101361.22;5104598;27;45495;-78
2023/10/02 06:16:40;;;;;;;;;15.25;12.50;;;;;18.58;66.38;101354.13;5103955;27;46043;-77
2023/10/02 06:19:07;;;;;;;;;24.50;15.50;;;;;18.59;66.73;101364.66;5110086;27;45821;-78
2023/10/02 06:22:19;;;;;;;;;23.25;17.50;;;;;18.59;66.35;101362.00;5120311;27;45334;-81
2023/10/02 06:24:20;;;;;;;;;21.75;18.00;;;;;18.65;66.30;101373.22;5107188;27;45496;-79
2023/10/02 06:26:57;;;;;;;;;25.50;19.75;;;;;18.64;66.10;101375.00;5116429;27;45939;-81
2023/10/02 06:29:24;;;;;;;;;23.75;17.75;;;;;18.67;66.58;101376.66;5118947;27;45498;-77
2023/10/02 06:31:51;;;;;;;;;28.00;17.50;;;;;18.68;66.18;101384.53;5105220;27;45222;-81
2023/10/02 06:34:18;;;;;;;;;25.25;21.25;;;;;18.68;66.02;101381.88;5116944;27;45503;-81
2023/10/02 06:36:48;;;;;;;;;22.00;16.00;;;;;18.68;65.77;101389.84;5105878;27;46349;-79
2023/10/02 06:39:21;;;;;;;;;20.25;15.00;;;;;18.69;65.92;101394.19;5115578;27;46883;-77
2023/10/02 06:41:46;;;;;;;;;26.50;16.50;;;;;18.70;66.10;101393.25;5113865;27;45372;-81
2023/10/02 06:44:15;;;;;;;;;18.50;14.50;;;;;18.71;65.90;101386.16;5116476;27;45447;-80
2023/10/02 06:46:53;;;;;;;;;21.75;16.00;;;;;18.72;65.94;101390.53;5102907;27;47964;-78
2023/10/02 06:49:23;;;;;;;;;21.00;13.25;;;;;18.75;65.66;101383.28;5120299;27;45314;-80
2023/10/02 06:51:49;;;;;;;;;23.00;17.00;;;;;18.77;65.76;101392.00;5118049;27;45502;-78
2023/10/02 06:54:17;;;;;;;;;22.50;16.25;;;;;18.79;65.81;101386.63;5118707;27;45452;-70
2023/10/02 06:56:42;;;;;;;;;26.00;18.75;;;;;18.80;65.80;101393.63;5114731;27;46454;-78
2023/10/02 06:59:09;;;;;;;;;22.00;13.00;;;;;18.83;65.56;101403.28;5120424;27;45337;-72
2023/10/02 07:01:35;;;;;;;;;21.50;15.25;;;;;18.83;65.62;101396.19;5106802;27;45431;-77
2023/10/02 07:04:09;;;;;;;;;26.00;16.75;;;;;18.85;65.75;101393.44;5122624;27;45593;-77
2023/10/02 07:06:38;;;;;;;;;25.50;14.75;;;;;18.88;65.41;101393.31;5109262;27;45444;-77
2023/10/02 07:09:13;;;;;;;;;28.25;17.00;;;;;18.89;65.46;101395.00;5105848;27;45934;-75
2023/10/02 07:11:42;;;;;;;;;24.25;16.50;;;;;18.94;65.36;101396.47;5117912;27;45231;-78
2023/10/02 07:14:09;;;;;;;;;22.75;17.75;;;;;18.96;65.25;101396.41;5115776;27;45524;-78
2023/10/02 07:16:35;;;;;;;;;20.00;15.50;;;;;18.96;65.61;101397.28;5121766;27;45517;-75
2023/10/02 07:19:01;;;;;;;;;19.50;16.00;;;;;19.02;65.33;101396.09;5116887;27;45586;-71
2023/10/02 07:21:30;;;;;;;;;21.75;17.25;;;;;19.07;65.20;101398.50;5129006;27;45347;-76
2023/10/02 07:23:57;;;;;;;;;25.25;14.75;;;;;19.10;64.74;101396.53;5132410;27;45282;-77
2023/10/02 07:26:49;;;;;;;;;23.00;15.00;;;;;19.13;64.55;101392.88;5116990;27;45575;-76
2023/10/02 07:29:08;;;;;;;;;19.50;17.50;;;;;19.15;64.45;101396.31;5106172;27;45405;-78
2023/10/02 07:31:34;;;;;;;;;24.50;15.75;;;;;19.18;64.39;101397.97;5112171;27;45400;-78
2023/10/02 07:34:00;;;;;;;;;24.00;15.00;;;;;19.20;64.39;101393.41;5110252;27;46217;-76
2023/10/02 07:36:32;;;;;;;;;23.00;16.50;;;;;19.23;63.95;101391.47;5109138;27;46966;-78
2023/10/02 07:39:00;;;;;;;;;30.00;16.25;;;;;19.25;64.26;101384.28;5115438;27;45331;-74
2023/10/02 07:41:25;;;;;;;;;15.50;13.00;;;;;19.31;63.73;101396.34;5111934;27;45366;-80
2023/10/02 07:43:55;;;;;;;;;24.75;15.75;;;;;19.32;63.87;101388.31;5116014;27;45602;-77
2023/10/02 07:46:21;;;;;;;;;22.50;14.75;;;;;19.35;63.74;101382.84;5117707;27;46403;-78
2023/10/02 07:48:57;;;;;;;;;24.00;15.00;;;;;19.39;63.85;101390.63;5119685;27;45749;-74
2023/10/02 07:51:30;;;;;;;;;23.00;19.25;;;;;19.44;63.31;101378.84;5108941;27;45406;-72
2023/10/02 07:54:04;;;;;;;;;30.25;19.50;;;;;19.50;63.43;101382.97;5099021;27;45454;-72
2023/10/02 07:56:30;;;;;;;;;26.75;18.75;;;;;19.55;63.44;101388.88;5104246;27;46384;-72
2023/10/02 07:59:00;;;;;;;;;20.75;16.00;;;;;19.58;63.20;101385.19;5116778;27;45649;-73
2023/10/02 08:01:27;;;;;;;;;23.00;18.75;;;;;19.63;63.06;101385.78;5107313;27;46798;-72
2023/10/02 08:03:55;;;;;;;;;20.25;13.50;;;;;19.65;63.01;101387.41;5106571;27;45555;-71
2023/10/02 08:11:50;;;;;;;;;23.75;15.75;;;;;19.78;62.79;101400.94;5103800;27;45330;-74
2023/10/02 08:14:34;;;;;;;;;30.25;19.25;;;;;19.82;62.41;101389.19;5118220;27;45712;-73
2023/10/02 08:17:00;;;;;;;;;23.25;17.00;;;;;19.85;62.26;101394.34;5111205;27;46540;-75
2023/10/02 08:19:26;;;;;;;;;16.75;16.75;;;;;19.88;62.05;101395.94;5105954;27;45152;-77
2023/10/02 08:21:53;;;;;;;;;38.00;29.50;;;;;19.90;61.73;101396.72;5105803;27;45231;-72
2023/10/02 08:24:19;;;;;;;;;74.75;57.25;;;;;19.92;61.54;101400.16;5107187;27;46264;-78
2023/10/02 08:26:44;;;;;;;;;38.00;29.00;;;;;19.91;61.97;101390.47;5110450;27;45395;-76
2023/10/02 08:29:14;;;;;;;;;18.00;10.25;;;;;19.94;61.56;101389.44;5097879;27;45348;-75
2023/10/02 08:31:47;;;;;;;;;22.75;16.25;;;;;19.96;61.37;101393.72;5092993;27;45378;-76
2023/10/02 08:34:19;;;;;;;;;21.50;16.00;;;;;20.02;61.89;101401.34;5112880;27;45310;-74
2023/10/02 08:36:48;;;;;;;;;20.75;16.00;;;;;20.06;61.10;101400.25;5108359;27;46912;-78
2023/10/02 08:39:20;;;;;;;;;21.75;17.00;;;;;20.13;60.97;101402.53;5104746;27;45291;-77
2023/10/02 08:41:46;;;;;;;;;25.25;17.25;;;;;20.15;61.10;101398.88;5132330;27;45311;-77
2023/10/02 08:44:12;;;;;;;;;23.50;17.25;;;;;20.24;61.16;101408.97;5115926;27;45483;-76
2023/10/02 08:46:42;;;;;;;;;22.75;14.75;;;;;20.28;60.53;101404.34;5105681;27;46385;-75
2023/10/02 08:49:09;;;;;;;;;24.25;16.75;;;;;20.37;60.48;101401.16;5109583;27;45364;-75
2023/10/02 08:51:38;;;;;;;;;23.00;14.75;;;;;20.45;60.55;101398.91;5102918;27;45468;-76
2023/10/02 08:54:05;;;;;;;;;24.25;17.75;;;;;20.52;60.21;101387.91;5108235;27;45665;-72
2023/10/02 08:56:49;;;;;;;;;24.25;16.00;;;;;20.61;60.03;101395.34;5104530;27;47226;-74
2023/10/02 08:59:26;;;;;;;;;22.50;16.75;;;;;20.69;60.07;101387.81;5116113;27;45195;-72
2023/10/02 09:02:04;;;;;;;;;22.00;16.50;;;;;20.76;59.45;101386.50;5100165;27;45474;-76
2023/10/02 09:04:32;;;;;;;;;31.25;18.00;;;;;20.80;59.00;101376.53;5104632;27;45349;-75
2023/10/02 09:07:14;;;;;;;;;27.25;16.50;;;;;20.89;59.36;101385.75;5106639;27;48280;-77
2023/10/02 09:09:45;;;;;;;;;21.50;18.25;;;;;20.97;58.95;101387.00;5105553;27;45364;-74
2023/10/02 09:12:15;;;;;;;;;30.75;20.25;;;;;21.05;58.90;101383.88;5111595;27;45246;-69
2023/10/02 09:14:41;;;;;;;;;26.50;18.50;;;;;21.15;58.70;101379.72;5098969;27;45445;-73
2023/10/02 09:17:22;;;;;;;;;27.50;17.25;;;;;21.23;58.76;101384.59;5107314;27;46478;-76
2023/10/02 09:19:56;;;;;;;;;22.25;15.50;;;;;21.32;58.47;101385.78;5119916;27;45721;-78
2023/10/02 09:22:23;;;;;;;;;25.25;18.50;;;;;21.41;58.15;101393.22;5110304;27;45347;-72
2023/10/02 09:25:35;;;;;;;;;28.50;20.00;;;;;21.50;58.03;101383.84;5109129;27;45385;-73
2023/10/02 09:28:04;;;;;;;;;27.00;17.50;;;;;21.58;57.79;101382.41;5111745;27;46627;-76
2023/10/02 09:30:36;;;;;;;;;23.50;16.75;;;;;21.64;58.11;101380.28;5109812;27;46326;-74
2023/10/02 09:33:18;;;;;;;;;25.25;17.25;;;;;21.70;57.61;101379.91;5119941;27;45823;-75
2023/10/02 09:35:50;;;;;;;;;26.00;18.50;;;;;21.75;57.04;101375.16;5113217;27;45282;-73
2023/10/02 09:38:16;;;;;;;;;20.75;15.50;;;;;21.79;57.25;101372.19;5117192;27;46317;-72
2023/10/02 09:40:54;;;;;;;;;22.50;17.25;;;;;21.88;56.69;101365.41;5118340;27;45319;-75
2023/10/02 09:43:28;;;;;;;;;21.50;16.75;;;;;21.94;56.50;101370.34;5122093;27;45297;-74
2023/10/02 09:46:00;;;;;;;;;30.00;17.25;;;;;22.02;56.65;101369.84;5111111;27;45375;-74
2023/10/02 09:48:47;;;;;;;;;26.50;19.75;;;;;22.12;56.39;101367.44;5113990;27;45298;-76
2023/10/02 09:54:14;;;;;;;;;18.25;16.75;;;;;22.31;56.21;101349.31;5118133;27;45669;-77
2023/10/02 09:57:24;;;;;;;;;24.25;19.00;;;;;22.40;56.07;101346.97;5100415;27;45378;-74
2023/10/02 09:59:51;;;;;;;;;23.25;17.50;;;;;22.49;56.31;101341.03;5101399;27;46108;-74
2023/10/02 10:05:02;;;;;;;;;28.25;21.75;;;;;22.67;55.72;101339.75;5107026;27;45542;-77
2023/10/02 10:13:34;;;;;;;;;28.00;17.00;;;;;22.92;54.83;101332.72;5119518;27;45732;-78
2023/10/02 10:16:29;;;;;;;;;26.50;21.50;;;;;23.01;54.78;101323.22;5119726;27;45354;-79
2023/10/02 10:19:26;;;;;;;;;20.75;18.00;;;;;23.09;54.41;101329.78;5099609;27;45496;-75
2023/10/02 10:21:56;;;;;;;;;31.25;23.25;;;;;23.16;54.71;101332.00;5111617;27;46503;-78
2023/10/02 10:24:56;;;;;;;;;24.00;17.50;;;;;23.23;54.01;101325.25;5103836;27;46065;-75
2023/10/02 10:27:40;;;;;;;;;22.25;17.00;;;;;23.31;54.23;101318.41;5109777;27;45412;-76
2023/10/02 10:30:28;;;;;;;;;30.75;18.75;;;;;23.40;54.10;101316.06;5106583;27;45510;-77
2023/10/02 10:35:35;;;;;;;;;26.75;17.25;;;;;23.53;53.57;101321.34;5120892;27;45265;-77
2023/10/02 10:38:04;;;;;;;;;31.50;19.75;;;;;23.58;53.54;101311.19;5118003;27;45251;-78
2023/10/02 10:40:46;;;;;;;;;27.00;18.50;;;;;23.61;53.47;101317.16;5109901;27;45524;-79
2023/10/02 10:43:13;;;;;;;;;29.75;19.50;;;;;23.66;52.95;101312.34;5112365;27;46528;-81
2023/10/02 10:45:40;;;;;;;;;23.25;19.50;;;;;23.74;53.00;101311.75;5094526;27;45951;-82
2023/10/02 10:48:24;;;;;;;;;33.00;20.25;;;;;23.79;53.00;101301.59;5124141;27;45327;-82
2023/10/02 10:51:06;;;;;;;;;22.75;14.75;;;;;23.89;52.23;101301.81;5101304;27;45933;-73
2023/10/02 10:53:41;;;;;;;;;34.50;20.50;;;;;23.96;52.70;101297.72;5094772;27;46395;-82
2023/10/02 10:56:28;;;;;;;;;24.50;21.00;;;;;24.02;52.50;101291.88;5096384;27;45780;-82
2023/10/02 10:58:53;;;;;;;;;29.50;20.25;;;;;24.09;52.46;101294.13;5118245;27;45343;-78
2023/10/02 11:01:22;;;;;;;;;27.50;22.00;;;;;24.14;51.90;101292.78;5104753;27;45437;-76
2023/10/02 11:03:58;;;;;;;;;28.75;19.50;;;;;24.20;51.99;101283.44;5114659;27;45510;-77
2023/10/02 11:06:24;;;;;;;;;26.50;19.75;;;;;24.25;51.83;101284.81;5091155;27;45795;-76
2023/10/02 11:09:11;;;;;;;;;29.50;20.25;;;;;24.32;51.60;101271.81;5107291;27;45513;-78
2023/10/02 11:11:48;;;;;;;;;26.75;21.75;;;;;24.35;51.88;101257.38;5106602;27;45538;-82
2023/10/02 11:14:20;;;;;;;;;28.00;19.50;;;;;24.42;51.00;101261.28;5104164;27;46471;-77
2023/10/02 11:16:54;;;;;;;;;24.25;19.25;;;;;24.43;51.25;101262.97;5123861;27;45805;-78
2023/10/02 11:19:34;;;;;;;;;29.50;18.75;;;;;24.44;51.15;101262.00;5120463;27;45605;-79
2023/10/02 11:22:19;;;;;;;;;26.00;18.50;;;;;24.51;51.17;101255.22;5131046;27;45687;-79
2023/10/02 11:24:45;;;;;;;;;44.25;33.75;;;;;24.58;50.67;101258.28;5109529;27;47147;-79
2023/10/02 11:27:17;;;;;;;;;48.50;34.25;;;;;24.66;50.73;101255.84;5121882;27;45683;-80
2023/10/02 11:29:45;;;;;;;;;22.25;17.00;;;;;24.73;50.23;101254.41;5119581;27;45382;-80
2023/10/02 11:32:22;;;;;;;;;25.00;20.00;;;;;24.81;50.19;101251.13;5113000;27;45461;-79
2023/10/02 11:34:58;;;;;;;;;26.50;18.50;;;;;24.86;49.97;101245.38;5091574;27;48050;-80
2023/10/02 11:37:25;;;;;;;;;29.00;19.50;;;;;24.92;49.55;101261.81;5101903;27;45774;-80
2023/10/02 11:39:50;;;;;;;;;23.25;17.50;;;;;24.94;50.18;101256.34;5108531;27;45442;-76
2023/10/02 11:42:17;;;;;;;;;27.00;20.00;;;;;25.01;49.85;101260.25;5117901;27;70297;-76
2023/10/02 11:44:43;;;;;;;;;33.75;22.00;;;;;25.05;48.78;101261.69;5111246;27;46253;-76
2023/10/02 11:47:11;;;;;;;;;24.50;15.75;;;;;25.04;49.42;101246.63;5119134;27;65402;-78
2023/10/02 11:49:37;;;;;;;;;35.50;28.25;;;;;25.07;49.62;101254.38;5114250;27;45401;-73
2023/10/02 11:52:03;;;;;;;;;36.00;25.00;;;;;25.11;49.64;101241.63;5119701;27;45225;-79
2023/10/02 11:54:29;;;;;;;;;38.00;29.25;;;;;25.14;49.48;101239.56;5110929;27;45372;-80
2023/10/02 11:56:55;;;;;;;;;46.00;35.00;;;;;25.16;49.40;101236.72;5108319;27;45553;-83
2023/10/02 11:59:20;;;;;;;;;38.75;32.75;;;;;25.18;49.32;101232.97;5115219;27;45465;-76
2023/10/02 12:01:48;;;;;;;;;31.25;24.00;;;;;25.21;49.66;101226.50;5112692;27;72143;-76
2023/10/02 12:04:15;;;;;;;;;36.50;29.50;;;;;25.22;49.16;101222.84;5114768;27;46143;-72
2023/10/02 12:06:40;;;;;;;;;26.50;19.25;;;;;25.26;49.22;101218.13;5124328;27;45755;-72
2023/10/02 12:09:06;;;;;;;;;28.50;22.50;;;;;25.29;49.23;101225.91;5112113;27;45460;-70
2023/10/02 12:11:33;;;;;;;;;29.00;22.50;;;;;25.31;48.67;101219.44;5126469;27;45873;-77